Ellsworth Air Force Base
KRCA : now visible

Airfield :











YOU CAN JOIN US ON...

 
LOGIN :

Register | Disclaimer

   EN    FR    IT 

 









Legend :    VFR   Marginal VFR   IFR   Intensive IFR   Very Intensive IFR
Visi :
Ceiling :
>= 8 km
>= 3000ft
5 to 8 km
1000 to 3000 ft
1500m to 5 km
500 to 1000 ft
800 to 1500m
200 to 500 ft
< 800m
< 200 ft
Symbols :   Thunderstorms  Fog  Heavy snow  Heavy precipitations  Wind > 20 kt






- Airport Elevation : 3276 ft


KRCA - Ellsworth Air Force Base

CURRENT METAR :
  • 140456Z AUTO 18008KT 10SM CLR 05/M04 A2989 RMK AO2 SLP137 T00541037 $

EXPIRED METARs :
  • 140426Z AUTO 19005KT 2 1/4SM HZ CLR 04/M03 A2989 RMK AO2 SLP140 $
  • 140411Z AUTO 19005KT 1 7/8SM HZ CLR 04/M03 A2990 RMK AO2 SLP146 $
  • 140406Z AUTO 19007KT 1 3/4SM HZ CLR 04/M03 A2989 RMK AO2 SLP142 $
  • 140346Z AUTO 18005KT 2 1/4SM HZ CLR 04/M03 A2990 RMK AO2 VIS 1 3/4V2 1/4 SLP146 $
  • 140336Z AUTO 18004KT 1 3/4SM HZ CLR 04/M03 A2990 RMK AO2 VIS 1 3/4V2 3/4 SLP146 $
  • 140321Z AUTO 19004KT 4SM HZ CLR 05/M03 A2990 RMK AO2 SLP146 $
  • 140316Z AUTO 19003KT 2 1/4SM HZ CLR 05/M03 A2990 RMK AO2 VIS 1 3/4V2 3/4 SLP146 $
  • 140301Z AUTO 19005KT 2 3/4SM HZ CLR 05/M03 A2990 RMK AO2 VIS 2 3/4V5 SLP149 $
  • 140256Z AUTO 19004KT 4SM HZ CLR 05/M03 A2990 RMK AO2 SLP149 T00531035 55005 $

Expired Forecast.



MET'MAP, your aeronautical weather chart ! - Copyright ORBIFLY December 2007 - Disclaimer

ORBIFLY MET'MAP TEAM :

Programming & Development : Alexandra Zaïnal
Concept & Development : Baudouin d'Aumeries
Co-Development & Prog : Marc-Olivier Méhu
Technical & hardware support : Manuel Goepfert

Contact : metmap@orbifly.com




SOURCES & CREDITS :

   NOAA       Earth
Advisory